Time;durP1;ratioP1;P1;durP2;ratioP2;P2;SDS_P1;SDS_P2;PMS_P1;PMS_P2;Temp;Humidity;BMP_temperature;BMP_pressure;BME280_temperature;BME280_humidity;BME280_pressure;Samples;Min_cycle;Max_cycle;Signal;HPM_P1;HPM_P2
2022/01/31 00:02:17;;;;;;;11.40;0.93;;;4.00;99.90;;;;;;6220337;23;20000;-61
2022/01/31 00:04:43;;;;;;;9.50;1.15;;;4.00;99.90;;;;;;6220329;23;20016;-61
2022/01/31 00:07:10;;;;;;;6.60;0.77;;;4.00;99.90;;;;;;6247671;23;20007;-61
2022/01/31 00:09:36;;;;;;;5.40;0.90;;;4.10;99.90;;;;;;6247379;23;19996;-61
2022/01/31 00:12:07;;;;;;;5.90;0.90;;;4.00;99.90;;;;;;6248004;23;20414;-64
2022/01/31 00:16:59;;;;;;;4.85;0.85;;;3.90;99.90;;;;;;6247381;23;20000;-61
2022/01/31 00:19:25;;;;;;;4.80;0.75;;;3.90;99.90;;;;;;6247066;23;20070;-61
2022/01/31 00:21:51;;;;;;;4.13;0.88;;;3.80;99.90;;;;;;6247067;23;20046;-61
2022/01/31 00:24:17;;;;;;;3.45;0.65;;;3.80;99.90;;;;;;6220659;23;20000;-61
2022/01/31 00:26:42;;;;;;;4.88;1.90;;;3.70;99.90;;;;;;6246618;23;20050;-61
2022/01/31 00:29:08;;;;;;;6.47;0.80;;;3.70;99.90;;;;;;6247042;23;20007;-61
2022/01/31 00:31:33;;;;;;;9.20;0.82;;;3.60;99.90;;;;;;6246953;23;20007;-61
2022/01/31 00:33:59;;;;;;;3.30;0.95;;;3.50;99.90;;;;;;6246868;23;20410;-61
2022/01/31 00:36:25;;;;;;;4.13;1.27;;;3.50;99.90;;;;;;6246525;22;20318;-62
2022/01/31 00:38:51;;;;;;;8.50;1.27;;;3.60;99.90;;;;;;6246957;23;20007;-61
2022/01/31 00:41:16;;;;;;;3.30;0.68;;;3.70;99.90;;;;;;6220080;23;20034;-61
2022/01/31 00:43:44;;;;;;;6.90;0.85;;;3.60;99.90;;;;;;6246469;23;20000;-61
2022/01/31 00:46:12;;;;;;;5.23;0.60;;;3.60;99.90;;;;;;6220560;23;20015;-61
2022/01/31 00:48:44;;;;;;;6.95;1.05;;;3.60;99.90;;;;;;6246843;23;20223;-61
2022/01/31 00:51:10;;;;;;;4.55;0.98;;;3.50;99.90;;;;;;6246865;23;19996;-61
2022/01/31 00:53:37;;;;;;;6.90;0.95;;;3.50;99.90;;;;;;6247123;23;19997;-61
2022/01/31 00:56:03;;;;;;;5.00;0.63;;;3.50;99.90;;;;;;6246650;23;20054;-61
2022/01/31 00:58:28;;;;;;;10.55;1.33;;;3.40;99.90;;;;;;6219866;23;20008;-61
2022/01/31 01:00:54;;;;;;;4.93;0.73;;;3.40;99.90;;;;;;6220143;23;20028;-61
2022/01/31 01:03:20;;;;;;;6.22;1.00;;;3.40;99.90;;;;;;6246331;23;20066;-61
2022/01/31 01:05:45;;;;;;;10.75;1.40;;;3.40;99.90;;;;;;6246362;23;20000;-61
2022/01/31 01:08:11;;;;;;;4.10;0.85;;;3.40;99.90;;;;;;6246621;23;20027;-61
2022/01/31 01:10:37;;;;;;;6.70;0.82;;;3.40;99.90;;;;;;6220345;23;20000;-61
2022/01/31 01:13:03;;;;;;;5.88;1.10;;;3.40;99.90;;;;;;6246842;23;19997;-61
2022/01/31 01:15:29;;;;;;;3.53;0.80;;;3.50;99.90;;;;;;6246226;23;20373;-61
2022/01/31 01:17:55;;;;;;;3.53;0.75;;;3.40;99.90;;;;;;6246558;23;20008;-61
2022/01/31 01:20:20;;;;;;;4.05;1.13;;;3.40;99.90;;;;;;6220008;23;20007;-61
2022/01/31 01:22:47;;;;;;;7.22;0.82;;;3.30;99.90;;;;;;6246311;23;20008;-61
2022/01/31 01:25:14;;;;;;;5.97;1.10;;;3.30;99.90;;;;;;6220112;23;20064;-61
2022/01/31 01:27:41;;;;;;;4.15;0.80;;;3.30;99.90;;;;;;6246608;23;19997;-61
2022/01/31 01:30:09;;;;;;;6.38;1.10;;;3.30;99.90;;;;;;6246572;23;20008;-61
2022/01/31 01:32:45;;;;;;;3.50;0.50;;;3.30;99.90;;;;;;6219785;23;20004;-61
2022/01/31 01:35:11;;;;;;;5.72;1.15;;;3.30;99.90;;;;;;6246743;23;19996;-61
2022/01/31 01:37:37;;;;;;;8.20;1.05;;;3.40;99.90;;;;;;6246848;22;20012;-61
2022/01/31 01:40:04;;;;;;;8.45;1.35;;;3.30;99.90;;;;;;6246541;23;20006;-61
2022/01/31 01:42:29;;;;;;;4.22;1.20;;;3.30;99.90;;;;;;6246563;23;20046;-61
2022/01/31 01:44:55;;;;;;;6.07;1.52;;;3.30;99.90;;;;;;6246504;23;20004;-61
2022/01/31 01:47:23;;;;;;;3.75;1.13;;;3.20;99.90;;;;;;6246501;23;20019;-61
2022/01/31 01:49:50;;;;;;;8.80;0.98;;;3.20;99.90;;;;;;6219660;23;20087;-61
2022/01/31 01:52:17;;;;;;;3.75;1.17;;;3.20;99.90;;;;;;6246463;23;19996;-61
2022/01/31 01:54:45;;;;;;;6.07;1.23;;;3.30;99.90;;;;;;6246408;23;20422;-61
2022/01/31 01:57:11;;;;;;;7.53;1.08;;;3.20;99.90;;;;;;6246154;23;20075;-61
2022/01/31 01:59:39;;;;;;;6.70;1.10;;;3.10;99.90;;;;;;6246453;23;20066;-61
2022/01/31 02:02:05;;;;;;;5.72;0.77;;;3.50;99.90;;;;;;6219566;23;20023;-61
2022/01/31 02:04:32;;;;;;;13.05;1.58;;;3.10;99.90;;;;;;6246458;23;20004;-61
2022/01/31 02:06:58;;;;;;;8.77;1.17;;;3.10;99.90;;;;;;6219230;23;20000;-61
2022/01/31 02:09:26;;;;;;;9.40;1.00;;;3.20;99.90;;;;;;6246497;23;20082;-61
2022/01/31 02:11:55;;;;;;;4.22;0.95;;;3.20;99.90;;;;;;6219840;23;20322;-61
2022/01/31 02:14:25;;;;;;;8.77;1.25;;;3.20;99.90;;;;;;6246664;23;20318;-61
2022/01/31 02:16:51;;;;;;;5.32;1.15;;;3.10;99.90;;;;;;6246455;23;20051;-61
2022/01/31 02:19:18;;;;;;;3.70;0.82;;;3.30;99.90;;;;;;6247013;23;20011;-61
2022/01/31 02:21:45;;;;;;;7.07;0.75;;;3.10;99.90;;;;;;6248148;23;19996;-61
2022/01/31 02:24:13;;;;;;;9.98;0.98;;;3.10;99.90;;;;;;6249379;23;20057;-61
2022/01/31 02:26:38;;;;;;;10.30;1.05;;;3.10;99.90;;;;;;6248984;23;20003;-61
2022/01/31 02:29:05;;;;;;;5.65;1.25;;;3.00;99.90;;;;;;6221378;23;20030;-61
2022/01/31 02:31:31;;;;;;;10.52;1.00;;;3.10;99.90;;;;;;6221161;23;20012;-61
2022/01/31 02:33:57;;;;;;;5.15;1.15;;;3.10;99.90;;;;;;6221210;23;20000;-61
2022/01/31 02:36:22;;;;;;;5.30;0.77;;;3.20;99.90;;;;;;6220804;22;20008;-61
2022/01/31 02:38:48;;;;;;;10.27;0.95;;;3.10;99.90;;;;;;6221354;23;20026;-61
2022/01/31 02:41:13;;;;;;;4.55;0.73;;;3.00;99.90;;;;;;6247997;23;20054;-61
2022/01/31 02:43:39;;;;;;;5.45;1.40;;;3.00;99.90;;;;;;6247630;23;20315;-62
2022/01/31 02:46:05;;;;;;;4.95;1.00;;;3.00;99.90;;;;;;6248337;23;20084;-61
2022/01/31 02:48:34;;;;;;;7.55;1.52;;;3.10;99.90;;;;;;6247896;23;20004;-61
2022/01/31 02:51:00;;;;;;;8.10;0.90;;;3.10;99.90;;;;;;6221058;23;20090;-61
2022/01/31 02:53:29;;;;;;;5.07;1.35;;;3.20;99.90;;;;;;6247827;23;20038;-61
2022/01/31 02:55:56;;;;;;;9.50;0.77;;;3.10;99.90;;;;;;6248128;23;20004;-61
2022/01/31 02:58:24;;;;;;;3.20;0.70;;;3.10;99.90;;;;;;6220898;23;20032;-61
2022/01/31 03:00:51;;;;;;;6.68;0.90;;;3.00;99.90;;;;;;6247998;23;19996;-61
2022/01/31 03:03:17;;;;;;;2.00;0.57;;;2.90;99.90;;;;;;6247805;23;19996;-61
2022/01/31 03:05:43;;;;;;;7.32;0.60;;;2.90;99.90;;;;;;6247901;23;20005;-61
2022/01/31 03:08:09;;;;;;;8.05;1.52;;;2.90;99.90;;;;;;6247777;23;20363;-61
2022/01/31 03:10:35;;;;;;;5.53;0.95;;;2.80;99.90;;;;;;6247934;23;20409;-61
2022/01/31 03:13:01;;;;;;;5.57;0.80;;;2.90;99.90;;;;;;6220894;23;20321;-61
2022/01/31 03:15:27;;;;;;;6.90;0.88;;;2.90;99.90;;;;;;6220705;23;20004;-61
2022/01/31 03:17:52;;;;;;;7.35;1.25;;;2.90;99.90;;;;;;6247659;23;20000;-61
2022/01/31 03:20:22;;;;;;;4.18;0.88;;;2.80;99.90;;;;;;6220744;23;20008;-61
2022/01/31 03:22:48;;;;;;;5.32;0.65;;;2.80;99.90;;;;;;6247647;23;20369;-61
2022/01/31 03:25:15;;;;;;;6.28;1.00;;;2.80;99.90;;;;;;6220652;23;20392;-61
2022/01/31 03:27:41;;;;;;;6.50;1.10;;;2.80;99.90;;;;;;6247150;23;20325;-61
2022/01/31 03:30:09;;;;;;;6.78;0.88;;;2.70;99.90;;;;;;6247444;23;20073;-61
2022/01/31 03:32:35;;;;;;;6.45;1.17;;;2.70;99.90;;;;;;6247521;23;20000;-61
2022/01/31 03:35:03;;;;;;;2.05;0.70;;;2.80;99.90;;;;;;6247491;23;20008;-61
2022/01/31 03:37:29;;;;;;;5.07;1.23;;;2.60;99.90;;;;;;6247226;22;20019;-61
2022/01/31 03:39:55;;;;;;;5.82;0.68;;;2.60;99.90;;;;;;6247529;23;20290;-61
2022/01/31 03:42:20;;;;;;;7.78;0.90;;;2.60;99.90;;;;;;6220200;23;20005;-61
2022/01/31 03:44:47;;;;;;;6.20;0.90;;;2.60;99.90;;;;;;6247419;23;20000;-61
2022/01/31 03:47:14;;;;;;;10.85;1.58;;;2.60;99.90;;;;;;6220458;23;20131;-61
2022/01/31 03:49:40;;;;;;;4.90;1.10;;;2.60;99.90;;;;;;6247466;23;19996;-61
2022/01/31 03:52:06;;;;;;;4.30;0.77;;;2.50;99.90;;;;;;6247705;23;20008;-61
2022/01/31 03:54:32;;;;;;;10.77;1.33;;;2.60;99.90;;;;;;6247169;23;19996;-61
2022/01/31 03:56:57;;;;;;;5.40;0.95;;;2.60;99.90;;;;;;6247239;23;20004;-61
2022/01/31 03:59:23;;;;;;;4.68;1.20;;;2.60;99.90;;;;;;6247231;23;20001;-61
2022/01/31 04:01:49;;;;;;;6.63;1.73;;;2.60;99.90;;;;;;6246817;23;20078;-61
2022/01/31 04:04:14;;;;;;;10.10;1.42;;;2.70;99.90;;;;;;6247160;23;20413;-61
2022/01/31 04:06:40;;;;;;;5.68;0.80;;;2.70;99.90;;;;;;6247603;23;20103;-61
2022/01/31 04:09:07;;;;;;;2.05;0.70;;;2.70;99.90;;;;;;6247121;23;20000;-61
2022/01/31 04:11:33;;;;;;;3.05;0.52;;;2.70;99.90;;;;;;6247128;23;19996;-61
2022/01/31 04:13:59;;;;;;;5.25;1.38;;;2.70;99.90;;;;;;6220151;23;20047;-61
2022/01/31 04:16:25;;;;;;;2.22;0.68;;;2.70;99.90;;;;;;6247662;23;20105;-61
2022/01/31 04:18:51;;;;;;;7.05;0.90;;;3.20;99.90;;;;;;6247853;23;20525;-61
2022/01/31 04:21:17;;;;;;;4.88;1.08;;;2.70;99.90;;;;;;6220677;23;19996;-62
2022/01/31 04:23:43;;;;;;;3.78;0.70;;;2.80;99.90;;;;;;6247123;23;20007;-61
2022/01/31 04:26:13;;;;;;;7.57;0.93;;;2.80;99.90;;;;;;6219768;23;20019;-61
2022/01/31 04:28:44;;;;;;;3.38;0.57;;;2.80;99.90;;;;;;6247069;23;20022;-61
2022/01/31 04:33:45;;;;;;;4.13;0.95;;;2.80;99.90;;;;;;6247159;23;20023;-61
2022/01/31 04:36:14;;;;;;;6.57;1.13;;;2.90;99.90;;;;;;6247077;23;20000;-62
2022/01/31 04:38:44;;;;;;;3.03;0.75;;;2.90;99.90;;;;;;6247420;22;20487;-61
2022/01/31 04:41:09;;;;;;;3.75;0.90;;;2.90;99.90;;;;;;6219674;23;20014;-61
2022/01/31 04:43:35;;;;;;;4.65;0.63;;;2.90;99.90;;;;;;6246542;23;20079;-61
2022/01/31 04:46:04;;;;;;;2.78;0.73;;;2.90;99.90;;;;;;6246908;23;20004;-61
2022/01/31 04:48:30;;;;;;;;;;;3.00;99.90;;;;;;6220454;23;20000;-61
2022/01/31 04:50:55;;;;;;;3.95;0.63;;;2.90;99.90;;;;;;6246812;23;19953;-61
2022/01/31 04:53:21;;;;;;;4.72;1.02;;;2.90;99.90;;;;;;6219851;23;20448;-61
2022/01/31 04:55:47;;;;;;;3.35;1.10;;;2.90;99.90;;;;;;6246635;23;20011;-61
2022/01/31 04:58:13;;;;;;;6.65;1.10;;;2.90;99.90;;;;;;6246803;23;20054;-61
2022/01/31 05:00:39;;;;;;;5.65;0.90;;;2.80;99.90;;;;;;6246927;23;20028;-61
2022/01/31 05:03:11;;;;;;;1.95;0.68;;;2.80;99.90;;;;;;6246919;23;20001;-61
2022/01/31 05:05:36;;;;;;;7.55;1.42;;;2.80;99.90;;;;;;6219933;23;20000;-61
2022/01/31 05:08:02;;;;;;;3.60;0.73;;;2.80;99.90;;;;;;6219924;23;20011;-61
2022/01/31 05:10:28;;;;;;;4.68;0.98;;;2.90;99.90;;;;;;6246343;23;20001;-61
2022/01/31 05:13:13;;;;;;;3.88;0.70;;;2.80;99.90;;;;;;6246636;23;20001;-61
2022/01/31 05:15:39;;;;;;;6.65;0.50;;;2.80;99.90;;;;;;6246571;23;20015;-61
2022/01/31 05:18:05;;;;;;;4.70;0.70;;;2.80;99.90;;;;;;6219711;23;20318;-61
2022/01/31 05:20:31;;;;;;;7.68;1.27;;;2.80;99.90;;;;;;6246661;23;19992;-61
2022/01/31 05:22:57;;;;;;;8.43;1.00;;;2.80;99.90;;;;;;6246686;23;20406;-61
2022/01/31 05:25:22;;;;;;;7.47;1.35;;;2.80;99.90;;;;;;6246910;23;20077;-61
2022/01/31 05:27:48;;;;;;;6.80;1.50;;;2.80;99.90;;;;;;6219425;23;20426;-61
2022/01/31 05:30:16;;;;;;;2.95;0.75;;;2.70;99.90;;;;;;6246628;23;20004;-62
2022/01/31 05:32:42;;;;;;;6.50;1.10;;;2.70;99.90;;;;;;6219829;23;20000;-61
2022/01/31 05:35:08;;;;;;;5.10;1.35;;;2.70;99.90;;;;;;6246661;23;20008;-61
2022/01/31 05:37:34;;;;;;;5.97;1.08;;;2.60;99.90;;;;;;6246030;22;20092;-61
2022/01/31 05:40:00;;;;;;;5.50;1.02;;;2.50;99.90;;;;;;6246543;23;19997;-61
2022/01/31 05:42:26;;;;;;;6.90;0.90;;;2.70;99.90;;;;;;6246494;23;20031;-61
2022/01/31 05:44:52;;;;;;;5.15;0.88;;;2.60;99.90;;;;;;6246568;23;20371;-61
2022/01/31 05:47:17;;;;;;;4.05;0.63;;;2.60;99.90;;;;;;6246225;23;19996;-61
2022/01/31 05:49:43;;;;;;;2.25;0.82;;;2.60;99.90;;;;;;6246852;23;20002;-61
2022/01/31 05:52:09;;;;;;;7.53;1.10;;;2.60;99.90;;;;;;6246551;23;20083;-61
2022/01/31 05:54:38;;;;;;;8.88;0.77;;;2.60;99.90;;;;;;6247682;23;20019;-61
2022/01/31 05:57:04;;;;;;;;;;;2.50;99.90;;;;;;6248589;23;20054;-61
2022/01/31 05:59:30;;;;;;;4.32;1.27;;;2.50;99.90;;;;;;6248465;23;19927;-61
2022/01/31 06:01:57;;;;;;;5.32;0.95;;;2.60;99.90;;;;;;6248417;23;20003;-61
2022/01/31 06:04:24;;;;;;;6.57;0.82;;;2.50;99.90;;;;;;6248299;23;19996;-61
2022/01/31 06:06:49;;;;;;;1.52;0.57;;;2.60;99.90;;;;;;6248419;23;20000;-61
2022/01/31 06:09:15;;;;;;;5.88;1.52;;;2.50;99.90;;;;;;6248263;23;20012;-61
2022/01/31 06:11:41;;;;;;;8.75;1.25;;;2.50;99.90;;;;;;6248229;23;20000;-61
2022/01/31 06:14:09;;;;;;;6.72;0.80;;;2.60;99.90;;;;;;6248368;23;19996;-61
2022/01/31 06:16:35;;;;;;;4.15;0.90;;;2.40;99.90;;;;;;6248128;23;20083;-62
2022/01/31 06:19:01;;;;;;;6.75;0.93;;;2.60;99.90;;;;;;6248065;23;20322;-61
2022/01/31 06:21:27;;;;;;;3.70;1.70;;;2.40;99.90;;;;;;6222448;23;20131;-61
2022/01/31 06:23:53;;;;;;;5.40;1.95;;;2.40;99.90;;;;;;6248261;23;20032;-61
2022/01/31 06:26:21;;;;;;;9.70;2.85;;;2.40;99.90;;;;;;6247709;23;20000;-61
2022/01/31 06:28:49;;;;;;;7.40;3.22;;;2.30;99.90;;;;;;6248074;23;20004;-61
2022/01/31 06:31:15;;;;;;;8.30;1.85;;;2.30;99.90;;;;;;6248213;23;20000;-61
2022/01/31 06:33:42;;;;;;;7.15;1.20;;;2.30;99.90;;;;;;6247957;23;20004;-61
2022/01/31 06:36:08;;;;;;;6.20;1.38;;;2.40;99.90;;;;;;6247875;23;20004;-61
2022/01/31 06:38:35;;;;;;;10.07;1.30;;;2.30;99.90;;;;;;6246856;22;20315;-61
2022/01/31 06:41:02;;;;;;;5.18;1.40;;;2.20;99.90;;;;;;6220420;23;20004;-61
2022/01/31 06:43:27;;;;;;;12.05;2.08;;;2.30;99.90;;;;;;6220308;23;20307;-61
2022/01/31 06:45:53;;;;;;;2.80;0.75;;;2.20;99.90;;;;;;6246536;23;20030;-61
2022/01/31 06:48:19;;;;;;;9.63;2.20;;;2.30;99.90;;;;;;6247464;23;20317;-62
2022/01/31 06:50:45;;;;;;;7.22;1.38;;;2.30;99.90;;;;;;6248050;23;20006;-61
2022/01/31 06:53:12;;;;;;;4.50;1.60;;;2.30;99.90;;;;;;6247787;23;19999;-61
2022/01/31 06:55:38;;;;;;;2.72;1.15;;;2.30;99.90;;;;;;6246681;23;20028;-62
2022/01/31 06:58:04;;;;;;;7.60;1.75;;;2.30;99.90;;;;;;6247102;23;19999;-61
2022/01/31 07:00:30;;;;;;;9.32;1.30;;;2.30;99.90;;;;;;6247366;23;20004;-61
2022/01/31 07:02:56;;;;;;;8.20;1.33;;;2.30;99.90;;;;;;6220042;23;20054;-61
2022/01/31 07:05:22;;;;;;;9.77;2.35;;;2.30;99.90;;;;;;6246631;23;20421;-61
2022/01/31 07:07:48;;;;;;;11.75;1.60;;;2.40;99.90;;;;;;6246836;23;20000;-61
2022/01/31 07:10:15;;;;;;;6.75;1.02;;;2.30;99.90;;;;;;6246922;23;20050;-61
2022/01/31 07:12:47;;;;;;;7.43;1.73;;;2.30;99.90;;;;;;6246413;23;20007;-61
2022/01/31 07:15:13;;;;;;;5.22;1.05;;;2.30;99.90;;;;;;6246639;23;20004;-61
2022/01/31 07:17:40;;;;;;;9.07;1.75;;;2.40;99.90;;;;;;6219734;23;20004;-61
2022/01/31 07:20:12;;;;;;;10.13;1.40;;;2.30;99.90;;;;;;6219834;23;20000;-61
2022/01/31 07:22:39;;;;;;;5.57;1.20;;;2.30;99.90;;;;;;6246670;23;20003;-61
2022/01/31 07:25:21;;;;;;;6.50;1.30;;;2.30;99.90;;;;;;6247534;23;20085;-61
2022/01/31 07:27:47;;;;;;;8.90;1.35;;;2.30;99.90;;;;;;6219385;23;20036;-61
2022/01/31 07:30:13;;;;;;;5.43;1.08;;;2.40;99.90;;;;;;6246876;23;20000;-61
2022/01/31 07:32:41;;;;;;;10.27;1.60;;;2.50;99.90;;;;;;6246202;23;20009;-61
2022/01/31 07:35:10;;;;;;;4.32;1.63;;;2.60;99.90;;;;;;6246509;23;20054;-61
2022/01/31 07:37:36;;;;;;;;;;;2.60;99.90;;;;;;6246819;22;20015;-61
2022/01/31 07:40:03;;;;;;;6.05;1.33;;;2.60;99.90;;;;;;6247067;23;19899;-61
2022/01/31 07:42:29;;;;;;;7.82;1.60;;;2.70;99.90;;;;;;6245562;23;20003;-61
2022/01/31 07:44:56;;;;;;;4.35;1.73;;;2.80;99.90;;;;;;6247347;23;20311;-61
2022/01/31 07:47:22;;;;;;;8.13;2.25;;;2.80;99.90;;;;;;6220434;23;20081;-61
2022/01/31 07:49:50;;;;;;;9.73;1.83;;;4.30;99.90;;;;;;6247611;23;20406;-61
2022/01/31 07:52:16;;;;;;;5.78;2.17;;;3.00;99.90;;;;;;6219985;23;20004;-62
2022/01/31 07:54:43;;;;;;;9.95;1.83;;;3.00;99.90;;;;;;6246549;23;20406;-62
2022/01/31 07:57:09;;;;;;;8.40;2.33;;;3.00;99.90;;;;;;6219718;23;20322;-61
2022/01/31 07:59:34;;;;;;;6.95;2.08;;;3.00;99.90;;;;;;6219732;23;20001;-61
2022/01/31 08:02:00;;;;;;;6.03;1.83;;;3.20;99.90;;;;;;6219625;23;20000;-61
2022/01/31 08:04:26;;;;;;;6.05;1.63;;;3.00;99.90;;;;;;6245833;23;20067;-63
2022/01/31 08:06:51;;;;;;;5.07;2.13;;;3.00;99.90;;;;;;6219732;23;20488;-61
2022/01/31 08:09:17;;;;;;;5.93;1.80;;;3.10;99.90;;;;;;6245896;23;20011;-61
2022/01/31 08:11:43;;;;;;;8.60;3.28;;;3.20;99.90;;;;;;6245919;23;19996;-62
2022/01/31 08:14:10;;;;;;;9.70;2.95;;;3.20;99.90;;;;;;6219652;23;20004;-61
2022/01/31 08:16:37;;;;;;;10.38;2.50;;;3.30;99.90;;;;;;6245934;23;20004;-61
2022/01/31 08:19:07;;;;;;;7.05;2.67;;;3.50;99.90;;;;;;6246355;23;20067;-61
2022/01/31 08:21:33;;;;;;;10.57;2.58;;;3.50;99.90;;;;;;6246648;23;19992;-62
2022/01/31 08:23:59;;;;;;;4.32;1.92;;;3.60;99.90;;;;;;6246537;23;20007;-61
2022/01/31 08:26:24;;;;;;;9.00;2.33;;;3.60;99.90;;;;;;6247583;23;20004;-61
2022/01/31 08:29:00;;;;;;;9.88;2.22;;;3.70;99.90;;;;;;6247121;23;20024;-61
2022/01/31 08:36:27;;;;;;;8.05;2.05;;;3.80;99.90;;;;;;6246201;22;20004;-62
2022/01/31 08:39:17;;;;;;;10.18;1.45;;;3.80;99.90;;;;;;6219341;23;20087;-62
2022/01/31 08:41:51;;;;;;;3.20;1.15;;;3.90;99.90;;;;;;6245975;23;20480;-61
2022/01/31 08:44:19;;;;;;;4.40;1.35;;;3.90;99.90;;;;;;6246230;23;20005;-61
2022/01/31 08:46:46;;;;;;;12.55;1.25;;;3.90;99.90;;;;;;6219205;23;20039;-62
2022/01/31 08:49:13;;;;;;;5.25;1.00;;;4.00;99.90;;;;;;6246035;23;20043;-61
2022/01/31 08:51:40;;;;;;;5.15;1.20;;;4.10;99.90;;;;;;6246213;23;20000;-61
2022/01/31 08:54:06;;;;;;;5.13;1.10;;;4.10;99.90;;;;;;6246349;23;20003;-61
2022/01/31 08:56:40;;;;;;;5.85;1.17;;;4.20;99.90;;;;;;6245854;23;20008;-61
2022/01/31 08:59:27;;;;;;;6.65;1.27;;;4.20;99.90;;;;;;6219049;23;20087;-61
2022/01/31 09:02:03;;;;;;;3.70;0.70;;;4.30;99.90;;;;;;6246360;23;19997;-61
2022/01/31 09:04:34;;;;;;;3.25;1.45;;;4.30;99.90;;;;;;6219416;23;20003;-62
2022/01/31 09:07:01;;;;;;;4.22;0.98;;;4.40;99.90;;;;;;6246183;23;20039;-62
2022/01/31 09:09:27;;;;;;;5.88;1.20;;;4.40;99.90;;;;;;6219186;23;20011;-61
2022/01/31 09:11:53;;;;;;;5.90;1.30;;;4.50;99.90;;;;;;6246584;23;20090;-61
2022/01/31 09:14:18;;;;;;;9.35;2.10;;;4.50;99.90;;;;;;6219240;23;20434;-61
2022/01/31 09:16:45;;;;;;;6.60;1.20;;;4.50;99.90;;;;;;6246078;23;20052;-62
2022/01/31 09:21:55;;;;;;;10.40;1.80;;;4.40;99.90;;;;;;6246389;23;20023;-60
2022/01/31 09:24:20;;;;;;;7.70;1.23;;;4.40;99.90;;;;;;6246242;23;20410;-61
2022/01/31 09:26:47;;;;;;;12.38;2.17;;;4.40;99.90;;;;;;6245962;23;19996;-61
2022/01/31 09:29:12;;;;;;;11.23;1.60;;;4.40;99.90;;;;;;6248249;23;20007;-61
2022/01/31 09:31:38;;;;;;;5.82;1.33;;;4.40;99.90;;;;;;6247694;23;20366;-61
2022/01/31 09:34:06;;;;;;;2.05;0.95;;;4.40;99.90;;;;;;6221319;23;20007;-61
2022/01/31 09:36:32;;;;;;;5.75;0.88;;;4.40;99.90;;;;;;6220932;22;20084;-62
2022/01/31 09:38:58;;;;;;;11.68;1.95;;;4.50;99.90;;;;;;6221258;23;20004;-61
2022/01/31 09:41:26;;;;;;;7.72;1.95;;;4.40;99.90;;;;;;6247898;23;20007;-62
2022/01/31 09:44:23;;;;;;;4.05;1.25;;;4.40;99.90;;;;;;6248210;23;19996;-61
2022/01/31 09:49:19;;;;;;;6.03;1.67;;;4.50;99.90;;;;;;6248010;23;20054;-61
2022/01/31 09:51:46;;;;;;;8.07;1.27;;;4.50;99.90;;;;;;6248044;23;20028;-61
2022/01/31 09:54:30;;;;;;;5.55;0.90;;;4.50;99.90;;;;;;6247816;23;20000;-61
2022/01/31 09:56:57;;;;;;;6.13;1.02;;;4.50;99.90;;;;;;6220705;23;20008;-61
2022/01/31 09:59:23;;;;;;;4.32;1.10;;;4.50;99.90;;;;;;6247875;23;19996;-61
2022/01/31 10:01:52;;;;;;;9.00;1.20;;;4.50;99.90;;;;;;6247576;23;20000;-61
2022/01/31 10:04:41;;;;;;;4.13;1.02;;;4.50;99.90;;;;;;6247880;23;20125;-61
2022/01/31 10:07:08;;;;;;;6.00;0.73;;;4.50;99.90;;;;;;6220650;23;19996;-61
2022/01/31 10:09:34;;;;;;;15.52;1.58;;;4.50;99.90;;;;;;6247487;23;20449;-61
2022/01/31 10:12:11;;;;;;;7.13;1.10;;;4.50;99.90;;;;;;6219962;23;20004;-61
2022/01/31 10:17:35;;;;;;;3.35;0.95;;;4.50;99.90;;;;;;6247421;23;20027;-61
2022/01/31 10:20:21;;;;;;;9.02;1.40;;;4.50;99.90;;;;;;6220540;23;20513;-61
2022/01/31 10:22:47;;;;;;;4.40;1.08;;;4.40;99.90;;;;;;6220866;23;20000;-61
2022/01/31 10:25:18;;;;;;;9.90;0.73;;;4.40;99.90;;;;;;6247448;23;20050;-62
2022/01/31 10:27:52;;;;;;;6.55;0.68;;;4.40;99.90;;;;;;6220484;23;20491;-61
2022/01/31 10:30:22;;;;;;;4.53;1.48;;;4.50;99.90;;;;;;6220935;23;20007;-61
2022/01/31 10:32:50;;;;;;;8.02;0.82;;;4.60;99.90;;;;;;6220607;23;20004;-62
2022/01/31 10:35:22;;;;;;;4.38;0.88;;;4.60;99.90;;;;;;6247553;23;20004;-61
2022/01/31 10:37:50;;;;;;;5.85;1.48;;;4.70;99.90;;;;;;6246971;22;20066;-62
2022/01/31 10:53:58;;;;;;;4.18;1.20;;;4.60;99.90;;;;;;6258013;23;20038;-61
2022/01/31 10:56:24;;;;;;;4.93;1.40;;;4.60;99.90;;;;;;6220783;23;20077;-61
2022/01/31 10:58:59;;;;;;;3.05;1.00;;;4.60;99.90;;;;;;6247198;23;20004;-61
2022/01/31 11:01:26;;;;;;;8.85;1.05;;;4.60;99.90;;;;;;6220626;23;20007;-62
2022/01/31 11:03:52;;;;;;;4.63;1.02;;;4.60;99.90;;;;;;6247561;23;20011;-62
2022/01/31 11:06:19;;;;;;;5.95;1.38;;;4.70;99.90;;;;;;6246663;23;20000;-61
2022/01/31 11:08:46;;;;;;;6.60;1.48;;;4.70;99.90;;;;;;6220759;23;20008;-60
2022/01/31 11:11:12;;;;;;;3.28;1.35;;;4.70;99.90;;;;;;6220067;23;20035;-62
2022/01/31 11:13:38;;;;;;;5.88;1.60;;;4.70;99.90;;;;;;6247360;23;20038;-62
2022/01/31 11:16:06;;;;;;;4.10;1.35;;;4.70;99.90;;;;;;6220084;23;20034;-62
2022/01/31 11:18:33;;;;;;;7.97;2.17;;;4.80;99.90;;;;;;6246784;23;20023;-62
2022/01/31 11:21:06;;;;;;;3.90;1.33;;;4.90;99.90;;;;;;6247735;23;20004;-62
2022/01/31 11:23:40;;;;;;;7.00;1.40;;;4.90;99.90;;;;;;6221614;23;20022;-61
2022/01/31 11:26:10;;;;;;;5.80;1.25;;;5.00;99.90;;;;;;6248939;23;20008;-61
2022/01/31 11:28:40;;;;;;;4.53;1.15;;;5.10;99.90;;;;;;6221697;23;20073;-61
2022/01/31 11:31:06;;;;;;;6.10;1.20;;;5.20;99.90;;;;;;6220432;23;20000;-61
2022/01/31 11:33:35;;;;;;;4.97;1.52;;;5.30;99.90;;;;;;6247441;23;20374;-61
2022/01/31 11:36:01;;;;;;;8.95;1.67;;;5.40;99.90;;;;;;6220277;23;20004;-61
2022/01/31 11:38:28;;;;;;;6.88;1.58;;;5.50;99.90;;;;;;6247576;22;20058;-61
2022/01/31 11:41:02;;;;;;;3.30;1.20;;;5.70;99.90;;;;;;6247475;23;20027;-61
2022/01/31 11:43:29;;;;;;;2.70;1.20;;;5.80;99.90;;;;;;6247400;23;20426;-61
2022/01/31 11:45:59;;;;;;;8.13;1.50;;;5.80;99.90;;;;;;6247308;23;20003;-61
2022/01/31 11:48:27;;;;;;;3.10;1.52;;;5.80;99.90;;;;;;6247281;23;20287;-61
2022/01/31 11:50:59;;;;;;;2.78;1.58;;;5.80;99.90;;;;;;6247275;23;20071;-61
2022/01/31 11:53:36;;;;;;;3.33;1.50;;;5.80;99.90;;;;;;6247143;23;20066;-61
2022/01/31 11:56:08;;;;;;;5.20;1.33;;;5.80;99.90;;;;;;6246694;23;20086;-61
2022/01/31 11:58:42;;;;;;;4.35;1.10;;;5.90;99.90;;;;;;6246517;23;19996;-61
2022/01/31 12:01:08;;;;;;;2.05;1.10;;;5.90;99.90;;;;;;6246830;23;20460;-61
2022/01/31 12:03:35;;;;;;;2.10;1.08;;;5.90;99.90;;;;;;6246417;23;19996;-62
2022/01/31 12:06:10;;;;;;;5.50;1.80;;;6.00;99.90;;;;;;6219614;23;20031;-61
2022/01/31 12:08:40;;;;;;;6.35;1.00;;;6.10;99.90;;;;;;6219918;23;20004;-61
2022/01/31 12:11:13;;;;;;;4.32;1.30;;;6.20;99.90;;;;;;6219998;23;20325;-61
2022/01/31 12:13:50;;;;;;;2.15;1.25;;;6.30;99.90;;;;;;6219802;23;20050;-61
2022/01/31 12:19:47;;;;;;;1.60;0.65;;;6.20;99.90;;;;;;6246646;23;20050;-61
2022/01/31 12:22:38;;;;;;;1.45;0.70;;;6.20;99.90;;;;;;6219512;23;20034;-62
2022/01/31 12:25:27;;;;;;;0.98;0.85;;;6.20;99.90;;;;;;6246474;23;20004;-61
2022/01/31 12:27:53;;;;;;;4.13;0.70;;;6.10;99.90;;;;;;6246325;23;20425;-61
2022/01/31 12:30:54;;;;;;;1.27;1.00;;;6.10;99.90;;;;;;6219481;23;20325;-62
2022/01/31 12:33:42;;;;;;;1.15;0.60;;;6.00;99.90;;;;;;6246554;23;20004;-61
2022/01/31 12:36:08;;;;;;;0.82;0.57;;;5.90;99.90;;;;;;6219359;23;20062;-62
2022/01/31 12:38:33;;;;;;;1.27;0.85;;;5.90;99.90;;;;;;6246284;22;20020;-61
2022/01/31 12:41:05;;;;;;;1.27;0.70;;;5.90;99.90;;;;;;6246678;23;20004;-61
2022/01/31 12:46:08;;;;;;;0.57;0.55;;;5.80;99.90;;;;;;6256690;23;20055;-61
2022/01/31 12:48:35;;;;;;;0.80;0.52;;;5.80;99.90;;;;;;6246191;23;20087;-61
2022/01/31 12:51:04;;;;;;;2.10;0.40;;;5.80;99.90;;;;;;6219796;23;20436;-61
2022/01/31 12:53:41;;;;;;;3.60;0.70;;;5.80;99.90;;;;;;6219817;23;20011;-61
2022/01/31 12:56:23;;;;;;;2.42;0.52;;;5.70;99.90;;;;;;6219341;23;20042;-61
2022/01/31 12:59:02;;;;;;;0.68;0.57;;;5.70;99.90;;;;;;6219823;23;20000;-61
2022/01/31 13:01:40;;;;;;;1.85;0.80;;;5.60;99.90;;;;;;6246870;23;20070;-61
2022/01/31 13:04:10;;;;;;;0.77;0.40;;;5.60;99.90;;;;;;6246723;23;20361;-61
2022/01/31 13:06:40;;;;;;;0.60;0.40;;;5.60;99.90;;;;;;6220017;23;20369;-61
2022/01/31 13:09:11;;;;;;;0.70;0.40;;;5.60;99.90;;;;;;6246827;23;20050;-61
2022/01/31 13:11:39;;;;;;;1.67;0.50;;;5.60;99.90;;;;;;6246662;23;19992;-61
2022/01/31 13:14:06;;;;;;;0.57;0.30;;;5.60;99.90;;;;;;6219860;23;20004;-61
2022/01/31 13:16:41;;;;;;;1.05;0.43;;;5.60;99.90;;;;;;6246598;23;20377;-60
2022/01/31 13:19:16;;;;;;;1.17;0.40;;;5.60;99.90;;;;;;6246853;23;20004;-61
2022/01/31 13:21:42;;;;;;;3.63;0.40;;;5.60;99.90;;;;;;6247006;23;20075;-61
2022/01/31 13:24:08;;;;;;;3.15;0.40;;;5.50;99.90;;;;;;6219697;23;20442;-61
2022/01/31 13:26:51;;;;;;;0.28;0.28;;;5.50;99.90;;;;;;6246647;23;20005;-61
2022/01/31 13:29:35;;;;;;;0.30;0.30;;;5.50;99.90;;;;;;6246627;23;20000;-61
2022/01/31 13:32:12;;;;;;;0.22;0.22;;;5.40;99.90;;;;;;6220246;23;20054;-61
2022/01/31 13:34:43;;;;;;;0.45;0.40;;;5.40;99.90;;;;;;6246515;23;20004;-61
2022/01/31 13:37:28;;;;;;;0.50;0.50;;;5.50;99.90;;;;;;6219315;23;20461;-61
2022/01/31 13:39:55;;;;;;;0.70;0.57;;;5.50;99.90;;;;;;6246164;23;20326;-61
2022/01/31 13:42:24;;;;;;;0.68;0.30;;;5.50;99.90;;;;;;6246839;23;20082;-60